sensor_id;sensor_type;location;lat;lon;timestamp;temperature;humidity
2010;DHT22;1008;47.404;8.502;2023-02-23T00:00:52;10.40;99.90
2010;DHT22;1008;47.404;8.502;2023-02-23T00:03:18;10.60;99.90
2010;DHT22;1008;47.404;8.502;2023-02-23T00:05:46;10.70;99.90
2010;DHT22;1008;47.404;8.502;2023-02-23T00:08:13;10.60;99.90
2010;DHT22;1008;47.404;8.502;2023-02-23T00:10:40;10.50;99.90
2010;DHT22;1008;47.404;8.502;2023-02-23T00:13:09;10.50;99.90
2010;DHT22;1008;47.404;8.502;2023-02-23T00:15:36;10.50;99.90
2010;DHT22;1008;47.404;8.502;2023-02-23T00:18:03;10.50;99.90
2010;DHT22;1008;47.404;8.502;2023-02-23T00:20:30;10.30;99.90
2010;DHT22;1008;47.404;8.502;2023-02-23T00:22:58;10.30;99.90
2010;DHT22;1008;47.404;8.502;2023-02-23T00:25:25;10.20;99.90
2010;DHT22;1008;47.404;8.502;2023-02-23T00:27:52;10.20;99.90
2010;DHT22;1008;47.404;8.502;2023-02-23T00:30:19;10.30;99.90
2010;DHT22;1008;47.404;8.502;2023-02-23T00:32:46;10.40;99.90
2010;DHT22;1008;47.404;8.502;2023-02-23T00:35:14;10.50;99.90
2010;DHT22;1008;47.404;8.502;2023-02-23T00:37:43;10.40;99.90
2010;DHT22;1008;47.404;8.502;2023-02-23T00:40:13;10.60;99.90
2010;DHT22;1008;47.404;8.502;2023-02-23T00:42:42;10.70;99.90
2010;DHT22;1008;47.404;8.502;2023-02-23T00:45:10;10.50;99.90
2010;DHT22;1008;47.404;8.502;2023-02-23T00:47:38;10.60;99.90
2010;DHT22;1008;47.404;8.502;2023-02-23T00:50:05;10.50;99.90
2010;DHT22;1008;47.404;8.502;2023-02-23T00:52:36;10.40;99.90
2010;DHT22;1008;47.404;8.502;2023-02-23T00:55:03;10.50;99.90
2010;DHT22;1008;47.404;8.502;2023-02-23T00:57:32;10.50;99.90
2010;DHT22;1008;47.404;8.502;2023-02-23T00:59:59;10.40;99.90
2010;DHT22;1008;47.404;8.502;2023-02-23T01:02:26;10.40;99.90
2010;DHT22;1008;47.404;8.502;2023-02-23T01:04:55;10.50;99.90
2010;DHT22;1008;47.404;8.502;2023-02-23T01:07:21;10.60;99.90
2010;DHT22;1008;47.404;8.502;2023-02-23T01:09:50;10.50;99.90
2010;DHT22;1008;47.404;8.502;2023-02-23T01:12:17;10.40;99.90
2010;DHT22;1008;47.404;8.502;2023-02-23T01:14:45;10.30;99.90
2010;DHT22;1008;47.404;8.502;2023-02-23T01:17:12;10.20;99.90
2010;DHT22;1008;47.404;8.502;2023-02-23T01:19:38;10.20;99.90
2010;DHT22;1008;47.404;8.502;2023-02-23T01:22:05;10.30;99.90
2010;DHT22;1008;47.404;8.502;2023-02-23T01:24:32;10.10;99.90
2010;DHT22;1008;47.404;8.502;2023-02-23T01:26:59;10.00;99.90
2010;DHT22;1008;47.404;8.502;2023-02-23T01:29:25;10.10;99.90
2010;DHT22;1008;47.404;8.502;2023-02-23T01:31:53;10.20;99.90
2010;DHT22;1008;47.404;8.502;2023-02-23T01:34:20;10.40;99.90
2010;DHT22;1008;47.404;8.502;2023-02-23T01:36:47;10.20;99.90
2010;DHT22;1008;47.404;8.502;2023-02-23T01:39:16;10.30;99.90
2010;DHT22;1008;47.404;8.502;2023-02-23T01:41:43;10.30;99.90
2010;DHT22;1008;47.404;8.502;2023-02-23T01:47:16;10.20;99.90
2010;DHT22;1008;47.404;8.502;2023-02-23T01:49:45;10.30;99.90
2010;DHT22;1008;47.404;8.502;2023-02-23T01:52:15;10.30;99.90
2010;DHT22;1008;47.404;8.502;2023-02-23T01:54:44;10.30;99.90
2010;DHT22;1008;47.404;8.502;2023-02-23T01:57:15;10.20;99.90
2010;DHT22;1008;47.404;8.502;2023-02-23T01:59:44;10.30;99.90
2010;DHT22;1008;47.404;8.502;2023-02-23T02:02:11;10.30;99.90
2010;DHT22;1008;47.404;8.502;2023-02-23T02:04:41;10.20;99.90
2010;DHT22;1008;47.404;8.502;2023-02-23T02:07:09;10.00;99.90
2010;DHT22;1008;47.404;8.502;2023-02-23T02:09:39;10.10;99.90
2010;DHT22;1008;47.404;8.502;2023-02-23T02:12:25;10.10;99.90
2010;DHT22;1008;47.404;8.502;2023-02-23T02:14:52;10.00;99.90
2010;DHT22;1008;47.404;8.502;2023-02-23T02:17:26;10.10;99.90
2010;DHT22;1008;47.404;8.502;2023-02-23T02:20:25;10.00;99.90
2010;DHT22;1008;47.404;8.502;2023-02-23T02:26:04;10.00;99.90
2010;DHT22;1008;47.404;8.502;2023-02-23T02:28:53;10.00;99.90
2010;DHT22;1008;47.404;8.502;2023-02-23T02:34:51;10.00;99.90
2010;DHT22;1008;47.404;8.502;2023-02-23T02:37:45;10.00;99.90
2010;DHT22;1008;47.404;8.502;2023-02-23T02:40:22;10.00;99.90
2010;DHT22;1008;47.404;8.502;2023-02-23T02:43:00;10.10;99.90
2010;DHT22;1008;47.404;8.502;2023-02-23T02:45:40;10.10;99.90
2010;DHT22;1008;47.404;8.502;2023-02-23T02:48:17;10.00;99.90
2010;DHT22;1008;47.404;8.502;2023-02-23T02:50:51;10.10;99.90
2010;DHT22;1008;47.404;8.502;2023-02-23T02:53:25;10.00;99.90
2010;DHT22;1008;47.404;8.502;2023-02-23T02:55:54;9.80;99.90
2010;DHT22;1008;47.404;8.502;2023-02-23T02:58:24;9.70;99.90
2010;DHT22;1008;47.404;8.502;2023-02-23T03:00:53;9.80;99.90
2010;DHT22;1008;47.404;8.502;2023-02-23T03:03:39;9.80;99.90
2010;DHT22;1008;47.404;8.502;2023-02-23T03:06:28;9.70;99.90
2010;DHT22;1008;47.404;8.502;2023-02-23T03:09:27;9.90;99.90
2010;DHT22;1008;47.404;8.502;2023-02-23T03:12:24;9.90;99.90
2010;DHT22;1008;47.404;8.502;2023-02-23T03:15:23;9.80;99.90
2010;DHT22;1008;47.404;8.502;2023-02-23T03:18:18;9.70;99.90
2010;DHT22;1008;47.404;8.502;2023-02-23T03:21:13;9.90;99.90
2010;DHT22;1008;47.404;8.502;2023-02-23T03:24:06;9.90;99.90
2010;DHT22;1008;47.404;8.502;2023-02-23T03:26:57;9.80;99.90
2010;DHT22;1008;47.404;8.502;2023-02-23T03:29:49;9.80;99.90
2010;DHT22;1008;47.404;8.502;2023-02-23T03:32:45;9.80;99.90
2010;DHT22;1008;47.404;8.502;2023-02-23T03:35:34;9.80;99.90
2010;DHT22;1008;47.404;8.502;2023-02-23T03:38:27;9.80;99.90
2010;DHT22;1008;47.404;8.502;2023-02-23T03:41:14;9.80;99.90
2010;DHT22;1008;47.404;8.502;2023-02-23T03:44:05;9.80;99.90
2010;DHT22;1008;47.404;8.502;2023-02-23T03:46:53;9.60;99.90
2010;DHT22;1008;47.404;8.502;2023-02-23T03:49:39;9.70;99.90
2010;DHT22;1008;47.404;8.502;2023-02-23T03:52:28;9.70;99.90
2010;DHT22;1008;47.404;8.502;2023-02-23T03:55:16;9.70;99.90
2010;DHT22;1008;47.404;8.502;2023-02-23T03:58:02;9.90;99.90
2010;DHT22;1008;47.404;8.502;2023-02-23T04:00:52;9.70;99.90
2010;DHT22;1008;47.404;8.502;2023-02-23T04:03:39;9.80;99.90
2010;DHT22;1008;47.404;8.502;2023-02-23T04:06:28;9.70;99.90
2010;DHT22;1008;47.404;8.502;2023-02-23T04:09:14;9.80;99.90
2010;DHT22;1008;47.404;8.502;2023-02-23T04:12:10;9.80;99.90
2010;DHT22;1008;47.404;8.502;2023-02-23T04:15:01;9.80;99.90
2010;DHT22;1008;47.404;8.502;2023-02-23T04:17:31;9.80;99.90
2010;DHT22;1008;47.404;8.502;2023-02-23T04:19:58;9.80;99.90
2010;DHT22;1008;47.404;8.502;2023-02-23T04:22:25;9.70;99.90
2010;DHT22;1008;47.404;8.502;2023-02-23T04:24:51;9.70;99.90
2010;DHT22;1008;47.404;8.502;2023-02-23T04:27:18;9.80;99.90
2010;DHT22;1008;47.404;8.502;2023-02-23T04:29:45;9.80;99.90
2010;DHT22;1008;47.404;8.502;2023-02-23T04:32:15;9.90;99.90
2010;DHT22;1008;47.404;8.502;2023-02-23T04:34:44;9.60;99.90
2010;DHT22;1008;47.404;8.502;2023-02-23T04:37:11;9.70;99.90
2010;DHT22;1008;47.404;8.502;2023-02-23T04:39:38;9.70;99.90
2010;DHT22;1008;47.404;8.502;2023-02-23T04:42:07;9.70;99.90
2010;DHT22;1008;47.404;8.502;2023-02-23T04:44:34;9.60;99.90
2010;DHT22;1008;47.404;8.502;2023-02-23T04:47:00;9.70;99.90
2010;DHT22;1008;47.404;8.502;2023-02-23T04:49:27;9.70;99.90
2010;DHT22;1008;47.404;8.502;2023-02-23T04:51:55;9.60;99.90
2010;DHT22;1008;47.404;8.502;2023-02-23T04:54:22;9.60;99.90
2010;DHT22;1008;47.404;8.502;2023-02-23T04:56:49;9.90;99.90
2010;DHT22;1008;47.404;8.502;2023-02-23T04:59:15;9.80;99.90
2010;DHT22;1008;47.404;8.502;2023-02-23T05:01:42;9.90;99.90
2010;DHT22;1008;47.404;8.502;2023-02-23T05:04:09;9.70;99.90
2010;DHT22;1008;47.404;8.502;2023-02-23T05:06:37;9.70;99.90
2010;DHT22;1008;47.404;8.502;2023-02-23T05:09:05;9.70;99.90
2010;DHT22;1008;47.404;8.502;2023-02-23T05:11:32;9.90;99.90
2010;DHT22;1008;47.404;8.502;2023-02-23T05:13:58;9.90;99.90
2010;DHT22;1008;47.404;8.502;2023-02-23T05:16:25;10.00;99.90
2010;DHT22;1008;47.404;8.502;2023-02-23T05:18:52;10.20;99.90
2010;DHT22;1008;47.404;8.502;2023-02-23T05:21:19;10.00;99.90
2010;DHT22;1008;47.404;8.502;2023-02-23T05:23:46;9.90;99.90
2010;DHT22;1008;47.404;8.502;2023-02-23T05:26:14;9.80;99.90
2010;DHT22;1008;47.404;8.502;2023-02-23T05:28:41;9.80;99.90
2010;DHT22;1008;47.404;8.502;2023-02-23T05:31:09;9.90;99.90
2010;DHT22;1008;47.404;8.502;2023-02-23T05:33:37;9.80;99.90
2010;DHT22;1008;47.404;8.502;2023-02-23T05:36:08;9.90;99.90
2010;DHT22;1008;47.404;8.502;2023-02-23T05:38:35;9.60;99.90
2010;DHT22;1008;47.404;8.502;2023-02-23T05:41:04;9.80;99.90
2010;DHT22;1008;47.404;8.502;2023-02-23T05:43:33;9.90;99.90
2010;DHT22;1008;47.404;8.502;2023-02-23T05:46:04;9.80;99.90
2010;DHT22;1008;47.404;8.502;2023-02-23T05:48:30;9.80;99.90
2010;DHT22;1008;47.404;8.502;2023-02-23T05:51:00;9.80;99.90
2010;DHT22;1008;47.404;8.502;2023-02-23T05:53:27;9.80;99.90
2010;DHT22;1008;47.404;8.502;2023-02-23T05:55:54;9.70;99.90
2010;DHT22;1008;47.404;8.502;2023-02-23T05:58:20;9.70;99.90
2010;DHT22;1008;47.404;8.502;2023-02-23T06:00:49;9.80;99.90
2010;DHT22;1008;47.404;8.502;2023-02-23T06:03:17;9.80;99.90
2010;DHT22;1008;47.404;8.502;2023-02-23T06:05:48;9.90;99.90
2010;DHT22;1008;47.404;8.502;2023-02-23T06:08:15;9.90;99.90
2010;DHT22;1008;47.404;8.502;2023-02-23T06:10:42;9.80;99.90
2010;DHT22;1008;47.404;8.502;2023-02-23T06:13:08;9.90;99.90
2010;DHT22;1008;47.404;8.502;2023-02-23T06:15:35;10.00;99.90
2010;DHT22;1008;47.404;8.502;2023-02-23T06:18:04;9.90;99.90
2010;DHT22;1008;47.404;8.502;2023-02-23T06:20:31;9.70;99.90
2010;DHT22;1008;47.404;8.502;2023-02-23T06:22:58;9.70;99.90
2010;DHT22;1008;47.404;8.502;2023-02-23T06:25:25;9.60;99.90
2010;DHT22;1008;47.404;8.502;2023-02-23T06:27:51;9.50;99.90
2010;DHT22;1008;47.404;8.502;2023-02-23T06:30:19;9.60;99.90
2010;DHT22;1008;47.404;8.502;2023-02-23T06:32:46;9.60;99.90
2010;DHT22;1008;47.404;8.502;2023-02-23T06:35:14;9.90;99.90
2010;DHT22;1008;47.404;8.502;2023-02-23T06:37:41;10.20;99.90
2010;DHT22;1008;47.404;8.502;2023-02-23T06:40:09;10.30;99.90
2010;DHT22;1008;47.404;8.502;2023-02-23T06:42:36;10.40;99.90
2010;DHT22;1008;47.404;8.502;2023-02-23T06:45:03;10.50;99.90
2010;DHT22;1008;47.404;8.502;2023-02-23T06:47:30;10.30;99.90
2010;DHT22;1008;47.404;8.502;2023-02-23T06:49:57;10.20;99.90
2010;DHT22;1008;47.404;8.502;2023-02-23T06:52:27;10.00;99.90
2010;DHT22;1008;47.404;8.502;2023-02-23T06:54:54;10.10;99.90
2010;DHT22;1008;47.404;8.502;2023-02-23T06:57:21;10.00;99.90
2010;DHT22;1008;47.404;8.502;2023-02-23T06:59:48;10.00;99.90
2010;DHT22;1008;47.404;8.502;2023-02-23T07:02:15;10.00;99.90
2010;DHT22;1008;47.404;8.502;2023-02-23T07:04:41;10.20;99.90
2010;DHT22;1008;47.404;8.502;2023-02-23T07:07:08;10.30;99.90
2010;DHT22;1008;47.404;8.502;2023-02-23T07:09:38;10.20;99.90
2010;DHT22;1008;47.404;8.502;2023-02-23T07:12:05;10.30;99.90
2010;DHT22;1008;47.404;8.502;2023-02-23T07:14:32;10.20;99.90
2010;DHT22;1008;47.404;8.502;2023-02-23T07:16:58;10.10;99.90
2010;DHT22;1008;47.404;8.502;2023-02-23T07:19:25;10.20;99.90
2010;DHT22;1008;47.404;8.502;2023-02-23T07:21:52;10.00;99.90
2010;DHT22;1008;47.404;8.502;2023-02-23T07:24:19;9.90;99.90
2010;DHT22;1008;47.404;8.502;2023-02-23T07:26:48;10.00;99.90
2010;DHT22;1008;47.404;8.502;2023-02-23T07:29:16;9.80;99.90
2010;DHT22;1008;47.404;8.502;2023-02-23T07:31:43;10.00;99.90
2010;DHT22;1008;47.404;8.502;2023-02-23T07:34:10;9.90;99.90
2010;DHT22;1008;47.404;8.502;2023-02-23T07:36:37;10.00;99.90
2010;DHT22;1008;47.404;8.502;2023-02-23T07:39:04;10.00;99.90
2010;DHT22;1008;47.404;8.502;2023-02-23T07:41:31;10.00;99.90
2010;DHT22;1008;47.404;8.502;2023-02-23T07:43:59;9.90;99.90
2010;DHT22;1008;47.404;8.502;2023-02-23T07:46:26;10.00;99.90
2010;DHT22;1008;47.404;8.502;2023-02-23T07:48:53;9.80;99.90
2010;DHT22;1008;47.404;8.502;2023-02-23T07:51:20;9.90;99.90
2010;DHT22;1008;47.404;8.502;2023-02-23T07:53:46;10.00;99.90
2010;DHT22;1008;47.404;8.502;2023-02-23T07:56:14;10.00;99.90
2010;DHT22;1008;47.404;8.502;2023-02-23T07:58:42;10.00;99.90
2010;DHT22;1008;47.404;8.502;2023-02-23T08:01:11;10.00;99.90
2010;DHT22;1008;47.404;8.502;2023-02-23T08:03:38;10.20;99.90
2010;DHT22;1008;47.404;8.502;2023-02-23T08:06:05;10.20;99.90
2010;DHT22;1008;47.404;8.502;2023-02-23T08:08:32;10.30;99.90
2010;DHT22;1008;47.404;8.502;2023-02-23T08:10:59;10.10;99.90
2010;DHT22;1008;47.404;8.502;2023-02-23T08:13:26;10.20;99.90
2010;DHT22;1008;47.404;8.502;2023-02-23T08:15:53;10.20;99.90
2010;DHT22;1008;47.404;8.502;2023-02-23T08:18:21;10.50;99.90
2010;DHT22;1008;47.404;8.502;2023-02-23T08:20:48;10.60;99.90
2010;DHT22;1008;47.404;8.502;2023-02-23T08:23:15;10.60;99.90
2010;DHT22;1008;47.404;8.502;2023-02-23T08:25:42;10.70;99.90
2010;DHT22;1008;47.404;8.502;2023-02-23T08:28:09;10.70;99.90
2010;DHT22;1008;47.404;8.502;2023-02-23T08:30:36;10.70;99.90
2010;DHT22;1008;47.404;8.502;2023-02-23T08:33:04;10.50;99.90
2010;DHT22;1008;47.404;8.502;2023-02-23T08:35:32;10.50;99.90
2010;DHT22;1008;47.404;8.502;2023-02-23T08:37:58;10.60;99.90
2010;DHT22;1008;47.404;8.502;2023-02-23T08:40:25;10.70;99.90
2010;DHT22;1008;47.404;8.502;2023-02-23T08:42:52;10.60;99.90
2010;DHT22;1008;47.404;8.502;2023-02-23T08:45:19;10.70;99.90
2010;DHT22;1008;47.404;8.502;2023-02-23T08:47:45;10.90;99.90
2010;DHT22;1008;47.404;8.502;2023-02-23T08:50:13;10.70;99.90
2010;DHT22;1008;47.404;8.502;2023-02-23T08:52:41;10.90;99.90
2010;DHT22;1008;47.404;8.502;2023-02-23T08:55:09;11.10;99.90
2010;DHT22;1008;47.404;8.502;2023-02-23T08:57:38;11.30;99.90
2010;DHT22;1008;47.404;8.502;2023-02-23T09:00:06;11.50;99.90
2010;DHT22;1008;47.404;8.502;2023-02-23T09:02:38;11.30;99.90
2010;DHT22;1008;47.404;8.502;2023-02-23T09:05:06;11.30;99.90
2010;DHT22;1008;47.404;8.502;2023-02-23T09:07:34;11.30;99.90
2010;DHT22;1008;47.404;8.502;2023-02-23T09:10:02;11.40;99.90
2010;DHT22;1008;47.404;8.502;2023-02-23T09:12:29;11.60;99.90
2010;DHT22;1008;47.404;8.502;2023-02-23T09:14:56;11.90;99.90
2010;DHT22;1008;47.404;8.502;2023-02-23T09:17:23;12.00;99.90
2010;DHT22;1008;47.404;8.502;2023-02-23T09:19:51;12.10;99.90
2010;DHT22;1008;47.404;8.502;2023-02-23T09:22:17;12.20;99.90
2010;DHT22;1008;47.404;8.502;2023-02-23T09:24:44;12.20;99.90
2010;DHT22;1008;47.404;8.502;2023-02-23T09:27:12;12.30;99.90
2010;DHT22;1008;47.404;8.502;2023-02-23T09:29:39;12.40;99.90
2010;DHT22;1008;47.404;8.502;2023-02-23T09:32:07;12.50;99.90
2010;DHT22;1008;47.404;8.502;2023-02-23T09:34:34;12.30;99.90
2010;DHT22;1008;47.404;8.502;2023-02-23T09:37:01;12.20;99.90
2010;DHT22;1008;47.404;8.502;2023-02-23T09:39:29;12.30;99.90
2010;DHT22;1008;47.404;8.502;2023-02-23T09:42:06;12.40;99.90
2010;DHT22;1008;47.404;8.502;2023-02-23T09:44:56;12.40;99.90
2010;DHT22;1008;47.404;8.502;2023-02-23T09:47:31;12.70;99.90
2010;DHT22;1008;47.404;8.502;2023-02-23T09:50:12;13.10;99.90
2010;DHT22;1008;47.404;8.502;2023-02-23T09:52:42;13.50;99.90
2010;DHT22;1008;47.404;8.502;2023-02-23T09:55:11;13.80;99.90
2010;DHT22;1008;47.404;8.502;2023-02-23T09:57:40;14.10;99.90
2010;DHT22;1008;47.404;8.502;2023-02-23T10:00:17;14.40;99.90
2010;DHT22;1008;47.404;8.502;2023-02-23T10:02:59;14.30;99.90
2010;DHT22;1008;47.404;8.502;2023-02-23T10:05:30;14.10;99.90
2010;DHT22;1008;47.404;8.502;2023-02-23T10:08:02;14.20;99.90
2010;DHT22;1008;47.404;8.502;2023-02-23T10:10:38;14.50;99.90
2010;DHT22;1008;47.404;8.502;2023-02-23T10:13:13;15.00;99.90
2010;DHT22;1008;47.404;8.502;2023-02-23T10:15:46;15.50;99.90
2010;DHT22;1008;47.404;8.502;2023-02-23T10:18:22;15.70;99.90
2010;DHT22;1008;47.404;8.502;2023-02-23T10:20:57;15.70;99.90
2010;DHT22;1008;47.404;8.502;2023-02-23T10:23:27;16.10;99.90
2010;DHT22;1008;47.404;8.502;2023-02-23T10:25:57;16.10;99.90
2010;DHT22;1008;47.404;8.502;2023-02-23T10:28:26;16.20;99.90
2010;DHT22;1008;47.404;8.502;2023-02-23T10:30:55;16.40;99.90
2010;DHT22;1008;47.404;8.502;2023-02-23T10:33:25;16.70;99.90
2010;DHT22;1008;47.404;8.502;2023-02-23T10:35:56;16.40;99.90
2010;DHT22;1008;47.404;8.502;2023-02-23T10:38:25;16.60;99.90
2010;DHT22;1008;47.404;8.502;2023-02-23T10:40:54;16.60;99.90
2010;DHT22;1008;47.404;8.502;2023-02-23T10:43:21;16.50;99.90
2010;DHT22;1008;47.404;8.502;2023-02-23T10:45:50;16.30;99.90
2010;DHT22;1008;47.404;8.502;2023-02-23T10:48:21;16.20;99.90
2010;DHT22;1008;47.404;8.502;2023-02-23T10:50:51;16.60;99.90
2010;DHT22;1008;47.404;8.502;2023-02-23T10:53:23;17.00;99.90
2010;DHT22;1008;47.404;8.502;2023-02-23T10:56:01;16.90;99.90
2010;DHT22;1008;47.404;8.502;2023-02-23T10:58:28;16.30;99.90
2010;DHT22;1008;47.404;8.502;2023-02-23T11:00:57;15.90;99.90
2010;DHT22;1008;47.404;8.502;2023-02-23T11:03:28;16.10;99.90
2010;DHT22;1008;47.404;8.502;2023-02-23T11:05:57;16.50;99.90
2010;DHT22;1008;47.404;8.502;2023-02-23T11:08:30;16.80;99.90
2010;DHT22;1008;47.404;8.502;2023-02-23T11:11:00;17.10;99.90
2010;DHT22;1008;47.404;8.502;2023-02-23T11:13:30;16.80;99.90
2010;DHT22;1008;47.404;8.502;2023-02-23T11:16:00;17.00;99.90
2010;DHT22;1008;47.404;8.502;2023-02-23T11:18:30;17.70;99.90
2010;DHT22;1008;47.404;8.502;2023-02-23T11:20:57;17.60;99.90
2010;DHT22;1008;47.404;8.502;2023-02-23T11:23:26;17.80;99.90
2010;DHT22;1008;47.404;8.502;2023-02-23T11:25:55;18.30;99.90
2010;DHT22;1008;47.404;8.502;2023-02-23T11:28:28;18.10;99.90
2010;DHT22;1008;47.404;8.502;2023-02-23T11:30:57;17.70;99.90
2010;DHT22;1008;47.404;8.502;2023-02-23T11:33:31;17.70;99.90
2010;DHT22;1008;47.404;8.502;2023-02-23T11:36:14;17.60;99.90
2010;DHT22;1008;47.404;8.502;2023-02-23T11:38:42;17.50;99.90
2010;DHT22;1008;47.404;8.502;2023-02-23T11:41:19;17.50;99.90
2010;DHT22;1008;47.404;8.502;2023-02-23T11:43:48;18.20;99.90
2010;DHT22;1008;47.404;8.502;2023-02-23T11:46:16;18.30;99.90
2010;DHT22;1008;47.404;8.502;2023-02-23T11:48:49;18.40;99.80
2010;DHT22;1008;47.404;8.502;2023-02-23T11:51:28;18.20;99.90
2010;DHT22;1008;47.404;8.502;2023-02-23T11:53:55;18.30;99.30
2010;DHT22;1008;47.404;8.502;2023-02-23T11:56:23;18.40;99.90
2010;DHT22;1008;47.404;8.502;2023-02-23T11:58:52;18.40;98.40
2010;DHT22;1008;47.404;8.502;2023-02-23T12:01:22;18.40;98.20
2010;DHT22;1008;47.404;8.502;2023-02-23T12:03:52;18.30;98.10
2010;DHT22;1008;47.404;8.502;2023-02-23T12:06:26;18.10;98.40
2010;DHT22;1008;47.404;8.502;2023-02-23T12:08:59;17.90;97.60
2010;DHT22;1008;47.404;8.502;2023-02-23T12:11:32;17.70;97.80
2010;DHT22;1008;47.404;8.502;2023-02-23T12:14:06;17.70;99.30
2010;DHT22;1008;47.404;8.502;2023-02-23T12:16:39;18.10;99.00
2010;DHT22;1008;47.404;8.502;2023-02-23T12:19:19;18.00;97.70
2010;DHT22;1008;47.404;8.502;2023-02-23T12:21:51;17.90;96.80
2010;DHT22;1008;47.404;8.502;2023-02-23T12:24:27;17.60;96.80
2010;DHT22;1008;47.404;8.502;2023-02-23T12:27:00;17.30;98.10
2010;DHT22;1008;47.404;8.502;2023-02-23T12:29:35;17.80;99.30
2010;DHT22;1008;47.404;8.502;2023-02-23T12:32:07;18.30;95.60
2010;DHT22;1008;47.404;8.502;2023-02-23T12:34:41;18.30;96.90
2010;DHT22;1008;47.404;8.502;2023-02-23T12:37:19;19.20;94.10
2010;DHT22;1008;47.404;8.502;2023-02-23T12:39:56;19.60;92.40
2010;DHT22;1008;47.404;8.502;2023-02-23T12:42:30;19.30;91.70
2010;DHT22;1008;47.404;8.502;2023-02-23T12:45:03;18.30;93.40
2010;DHT22;1008;47.404;8.502;2023-02-23T12:47:34;18.20;95.20
2010;DHT22;1008;47.404;8.502;2023-02-23T12:50:05;17.60;97.10
2010;DHT22;1008;47.404;8.502;2023-02-23T12:52:42;17.50;97.50
2010;DHT22;1008;47.404;8.502;2023-02-23T12:55:12;17.50;98.50
2010;DHT22;1008;47.404;8.502;2023-02-23T12:57:46;17.50;99.70
2010;DHT22;1008;47.404;8.502;2023-02-23T13:00:32;17.50;99.90
2010;DHT22;1008;47.404;8.502;2023-02-23T13:03:18;17.00;99.70
2010;DHT22;1008;47.404;8.502;2023-02-23T13:05:50;16.80;99.90
2010;DHT22;1008;47.404;8.502;2023-02-23T13:08:31;17.30;99.90
2010;DHT22;1008;47.404;8.502;2023-02-23T13:11:05;17.30;99.90
2010;DHT22;1008;47.404;8.502;2023-02-23T13:13:37;17.00;99.90
2010;DHT22;1008;47.404;8.502;2023-02-23T13:16:13;17.50;99.90
2010;DHT22;1008;47.404;8.502;2023-02-23T13:18:45;17.70;99.90
2010;DHT22;1008;47.404;8.502;2023-02-23T13:21:21;18.30;99.70
2010;DHT22;1008;47.404;8.502;2023-02-23T13:23:55;18.90;98.30
2010;DHT22;1008;47.404;8.502;2023-02-23T13:26:30;19.50;97.50
2010;DHT22;1008;47.404;8.502;2023-02-23T13:29:02;19.80;95.00
2010;DHT22;1008;47.404;8.502;2023-02-23T13:31:34;20.10;94.30
2010;DHT22;1008;47.404;8.502;2023-02-23T13:34:02;20.20;94.20
2010;DHT22;1008;47.404;8.502;2023-02-23T13:36:32;19.90;93.80
2010;DHT22;1008;47.404;8.502;2023-02-23T13:42:20;19.80;92.90
2010;DHT22;1008;47.404;8.502;2023-02-23T13:45:00;19.50;93.00
2010;DHT22;1008;47.404;8.502;2023-02-23T13:47:36;19.70;93.10
2010;DHT22;1008;47.404;8.502;2023-02-23T13:50:11;19.50;91.20
2010;DHT22;1008;47.404;8.502;2023-02-23T13:52:44;19.20;91.90
2010;DHT22;1008;47.404;8.502;2023-02-23T13:58:23;19.30;93.30
2010;DHT22;1008;47.404;8.502;2023-02-23T14:01:07;19.30;92.40
2010;DHT22;1008;47.404;8.502;2023-02-23T14:03:41;19.20;93.10
2010;DHT22;1008;47.404;8.502;2023-02-23T14:06:13;19.30;91.60
2010;DHT22;1008;47.404;8.502;2023-02-23T14:08:42;19.50;92.10
2010;DHT22;1008;47.404;8.502;2023-02-23T14:11:33;19.40;90.50
2010;DHT22;1008;47.404;8.502;2023-02-23T14:14:02;19.30;91.00
2010;DHT22;1008;47.404;8.502;2023-02-23T14:16:29;19.30;90.70
2010;DHT22;1008;47.404;8.502;2023-02-23T14:19:06;19.60;90.40
2010;DHT22;1008;47.404;8.502;2023-02-23T14:21:40;19.60;89.20
2010;DHT22;1008;47.404;8.502;2023-02-23T14:24:21;19.50;89.90
2010;DHT22;1008;47.404;8.502;2023-02-23T14:30:19;19.90;87.60
2010;DHT22;1008;47.404;8.502;2023-02-23T14:32:48;20.10;86.50
2010;DHT22;1008;47.404;8.502;2023-02-23T14:35:41;20.30;86.10
2010;DHT22;1008;47.404;8.502;2023-02-23T14:38:14;20.50;84.00
2010;DHT22;1008;47.404;8.502;2023-02-23T14:40:44;20.40;83.00
2010;DHT22;1008;47.404;8.502;2023-02-23T14:43:38;20.40;81.40
2010;DHT22;1008;47.404;8.502;2023-02-23T14:46:09;20.20;83.90
2010;DHT22;1008;47.404;8.502;2023-02-23T14:48:38;20.20;81.20
2010;DHT22;1008;47.404;8.502;2023-02-23T14:51:12;19.80;80.20
2010;DHT22;1008;47.404;8.502;2023-02-23T14:53:41;20.10;84.50
2010;DHT22;1008;47.404;8.502;2023-02-23T14:56:18;20.20;82.20
2010;DHT22;1008;47.404;8.502;2023-02-23T14:58:49;19.90;83.10
2010;DHT22;1008;47.404;8.502;2023-02-23T15:01:31;19.50;82.50
2010;DHT22;1008;47.404;8.502;2023-02-23T15:04:06;19.50;81.60
2010;DHT22;1008;47.404;8.502;2023-02-23T15:06:32;19.10;80.70
2010;DHT22;1008;47.404;8.502;2023-02-23T15:09:00;18.60;82.50
2010;DHT22;1008;47.404;8.502;2023-02-23T15:11:29;18.40;83.90
2010;DHT22;1008;47.404;8.502;2023-02-23T15:13:57;18.60;83.70
2010;DHT22;1008;47.404;8.502;2023-02-23T15:16:27;18.40;83.70
2010;DHT22;1008;47.404;8.502;2023-02-23T15:19:00;18.00;86.20
2010;DHT22;1008;47.404;8.502;2023-02-23T15:21:28;17.80;86.50
2010;DHT22;1008;47.404;8.502;2023-02-23T15:24:05;17.40;88.70
2010;DHT22;1008;47.404;8.502;2023-02-23T15:26:35;17.50;89.70
2010;DHT22;1008;47.404;8.502;2023-02-23T15:29:05;17.80;88.60
2010;DHT22;1008;47.404;8.502;2023-02-23T15:31:32;18.00;87.20
2010;DHT22;1008;47.404;8.502;2023-02-23T15:34:01;17.90;88.90
2010;DHT22;1008;47.404;8.502;2023-02-23T15:36:29;17.80;87.00
2010;DHT22;1008;47.404;8.502;2023-02-23T15:39:00;17.90;89.00
2010;DHT22;1008;47.404;8.502;2023-02-23T15:41:30;18.00;85.90
2010;DHT22;1008;47.404;8.502;2023-02-23T15:44:05;17.80;87.30
2010;DHT22;1008;47.404;8.502;2023-02-23T15:46:32;17.60;88.00
2010;DHT22;1008;47.404;8.502;2023-02-23T15:49:00;17.40;87.20
2010;DHT22;1008;47.404;8.502;2023-02-23T15:51:33;17.80;88.20
2010;DHT22;1008;47.404;8.502;2023-02-23T15:54:05;18.20;89.00
2010;DHT22;1008;47.404;8.502;2023-02-23T15:56:38;17.80;87.20
2010;DHT22;1008;47.404;8.502;2023-02-23T15:59:10;17.40;88.70
2010;DHT22;1008;47.404;8.502;2023-02-23T16:01:41;17.40;90.20
2010;DHT22;1008;47.404;8.502;2023-02-23T16:04:15;17.40;90.30
2010;DHT22;1008;47.404;8.502;2023-02-23T16:06:49;17.30;89.70
2010;DHT22;1008;47.404;8.502;2023-02-23T16:09:25;16.90;88.30
2010;DHT22;1008;47.404;8.502;2023-02-23T16:11:54;16.60;89.30
2010;DHT22;1008;47.404;8.502;2023-02-23T16:14:23;16.90;90.20
2010;DHT22;1008;47.404;8.502;2023-02-23T16:16:52;17.00;89.80
2010;DHT22;1008;47.404;8.502;2023-02-23T16:19:20;17.10;89.60
2010;DHT22;1008;47.404;8.502;2023-02-23T16:21:51;16.90;89.50
2010;DHT22;1008;47.404;8.502;2023-02-23T16:24:21;16.80;90.30
2010;DHT22;1008;47.404;8.502;2023-02-23T16:26:52;16.80;90.30
2010;DHT22;1008;47.404;8.502;2023-02-23T16:29:27;16.70;89.90
2010;DHT22;1008;47.404;8.502;2023-02-23T16:31:59;16.50;90.30
2010;DHT22;1008;47.404;8.502;2023-02-23T16:34:27;16.50;90.50
2010;DHT22;1008;47.404;8.502;2023-02-23T16:36:57;16.50;90.80
2010;DHT22;1008;47.404;8.502;2023-02-23T16:39:26;16.30;91.10
2010;DHT22;1008;47.404;8.502;2023-02-23T16:41:55;16.40;91.30
2010;DHT22;1008;47.404;8.502;2023-02-23T16:44:26;16.50;91.30
2010;DHT22;1008;47.404;8.502;2023-02-23T16:46:59;16.40;91.10
2010;DHT22;1008;47.404;8.502;2023-02-23T16:49:35;16.40;91.60
2010;DHT22;1008;47.404;8.502;2023-02-23T16:52:05;16.20;91.50